createdAt,value
2019-05-06T00:01:04.767Z,95174.50
2019-05-06T00:03:34.335Z,95181.86
2019-05-06T00:06:03.962Z,95174.45
2019-05-06T00:08:34.511Z,95176.09
2019-05-06T00:11:04.879Z,95176.06
2019-05-06T00:13:34.344Z,95183.68
2019-05-06T00:16:03.954Z,95175.58
2019-05-06T00:18:34.266Z,95172.20
2019-05-06T00:21:04.720Z,95175.45
2019-05-06T00:23:38.382Z,95173.48
2019-05-06T00:26:26.175Z,95181.38
2019-05-06T00:29:00.724Z,95171.81
2019-05-06T00:31:29.309Z,95167.31
2019-05-06T00:33:57.926Z,95166.72
2019-05-06T00:36:26.514Z,95163.34
2019-05-06T00:38:58.155Z,95171.45
2019-05-06T00:41:35.863Z,95163.78
2019-05-06T00:44:04.021Z,95164.25
2019-05-06T00:46:34.416Z,95166.11
2019-05-06T00:49:03.994Z,95170.26
2019-05-06T00:51:33.903Z,95170.94
2019-05-06T00:54:09.004Z,95171.94
2019-05-06T00:56:37.597Z,95171.57
2019-05-06T00:59:06.202Z,95169.61
2019-05-06T01:01:34.789Z,95174.11
2019-05-06T01:04:04.994Z,95171.48
2019-05-06T01:06:34.424Z,95168.07
2019-05-06T01:09:04.569Z,95168.25
2019-05-06T01:11:34.628Z,95166.32
2019-05-06T01:14:10.572Z,95169.59
2019-05-06T01:16:39.367Z,95171.91
2019-05-06T01:19:07.969Z,95168.48
2019-05-06T01:21:36.570Z,95166.64
2019-05-06T01:24:05.427Z,95168.53
2019-05-06T01:26:35.364Z,95171.79
2019-05-06T01:29:04.237Z,95170.41
2019-05-06T01:31:42.198Z,95173.05
2019-05-06T01:34:04.299Z,95166.72
2019-05-06T01:36:34.342Z,95169.23
2019-05-06T01:39:09.808Z,95172.98
2019-05-06T01:41:56.001Z,95170.09
2019-05-06T01:44:24.635Z,95172.97
2019-05-06T01:46:54.225Z,95172.69
2019-05-06T01:49:24.572Z,95177.38
2019-05-06T01:51:54.647Z,95178.07
2019-05-06T01:54:24.860Z,95175.45
2019-05-06T01:56:53.995Z,95168.66
2019-05-06T01:59:24.652Z,95172.45
2019-05-06T02:01:59.883Z,95169.67
2019-05-06T02:04:24.458Z,95173.38
2019-05-06T02:06:54.522Z,95173.56
2019-05-06T02:09:24.654Z,95175.47
2019-05-06T02:11:53.909Z,95178.53
2019-05-06T02:14:24.500Z,95167.73
2019-05-06T02:16:54.560Z,95176.97
2019-05-06T02:19:24.141Z,95168.64
2019-05-06T02:22:13.695Z,95172.83
2019-05-06T02:25:01.325Z,95172.27
2019-05-06T02:27:30.179Z,95168.97
2019-05-06T02:30:05.996Z,95166.50
2019-05-06T02:32:45.387Z,95169.89
2019-05-06T02:35:19.682Z,95167.61
2019-05-06T02:37:48.282Z,95174.59
2019-05-06T02:40:24.779Z,95176.52
2019-05-06T02:42:54.568Z,95173.30
2019-05-06T02:45:24.066Z,95177.27
2019-05-06T02:48:04.471Z,95176.94
2019-05-06T02:50:53.821Z,95174.77
2019-05-06T02:53:24.661Z,95173.41
2019-05-06T02:55:53.487Z,95177.27
2019-05-06T02:58:23.698Z,95175.67
2019-05-06T03:00:53.879Z,95176.28
2019-05-06T03:03:23.368Z,95169.88
2019-05-06T03:05:53.233Z,95171.33
2019-05-06T03:08:23.662Z,95180.00
2019-05-06T03:10:53.607Z,95174.05
2019-05-06T03:13:23.568Z,95164.67
2019-05-06T03:15:54.051Z,95172.42
2019-05-06T03:18:23.546Z,95165.74
2019-05-06T03:21:10.098Z,95167.16
2019-05-06T03:23:43.698Z,95167.21
2019-05-06T03:26:13.686Z,95168.34
2019-05-06T03:28:44.077Z,95161.98
2019-05-06T03:31:16.387Z,95157.27
2019-05-06T03:34:03.513Z,95162.94
2019-05-06T03:36:24.119Z,95164.51
2019-05-06T03:38:44.504Z,95169.33
2019-05-06T03:41:14.079Z,95171.44
2019-05-06T03:43:43.668Z,95169.92
2019-05-06T03:46:34.627Z,95157.12
2019-05-06T03:49:05.451Z,95170.48
2019-05-06T03:51:34.575Z,95162.77
2019-05-06T03:54:04.588Z,95169.64
2019-05-06T03:56:33.992Z,95167.32
2019-05-06T03:59:03.126Z,95162.73
2019-05-06T04:01:33.665Z,95172.03
2019-05-06T04:04:03.653Z,95171.34
2019-05-06T04:06:33.474Z,95176.28
2019-05-06T04:09:03.740Z,95173.01
2019-05-06T04:11:35.884Z,95169.59
2019-05-06T04:14:03.062Z,95168.67
2019-05-06T04:16:43.755Z,95173.36
2019-05-06T04:19:15.911Z,95174.72
2019-05-06T04:21:56.974Z,95178.19
2019-05-06T04:24:44.242Z,95184.66
2019-05-06T04:27:33.554Z,95179.16
2019-05-06T04:30:04.687Z,95178.35
2019-05-06T04:32:34.041Z,95178.63
2019-05-06T04:35:04.418Z,95178.19
2019-05-06T04:37:34.007Z,95179.27
2019-05-06T04:40:04.624Z,95180.20
2019-05-06T04:42:34.403Z,95183.62
2019-05-06T04:45:04.595Z,95184.19
2019-05-06T04:47:33.549Z,95187.51
2019-05-06T04:50:04.846Z,95185.84
2019-05-06T04:52:34.230Z,95197.13
2019-05-06T04:55:03.799Z,95184.56
2019-05-06T04:57:33.570Z,95199.42
2019-05-06T05:00:04.147Z,95193.97
2019-05-06T05:02:33.866Z,95197.61
2019-05-06T05:05:04.037Z,95197.33
2019-05-06T05:07:33.556Z,95193.19
2019-05-06T05:10:07.185Z,95195.78
2019-05-06T05:12:44.781Z,95202.62
2019-05-06T05:15:32.739Z,95198.11
2019-05-06T05:18:31.864Z,95203.05
2019-05-06T05:20:59.992Z,95204.66
2019-05-06T05:23:28.687Z,95201.52
2019-05-06T05:25:57.589Z,95201.97
2019-05-06T05:28:26.195Z,95207.29
2019-05-06T05:30:54.905Z,95211.86
2019-05-06T05:33:23.884Z,95214.82
2019-05-06T05:35:52.722Z,95209.35
2019-05-06T05:38:22.728Z,95223.70
2019-05-06T05:40:52.371Z,95217.45
2019-05-06T05:43:35.755Z,95219.20
2019-05-06T05:46:04.675Z,95222.73
2019-05-06T05:48:58.173Z,95218.59
2019-05-06T05:51:27.227Z,95214.16
2019-05-06T05:53:55.934Z,95219.10
2019-05-06T05:56:25.119Z,95223.69
2019-05-06T05:58:53.867Z,95224.15
2019-05-06T06:01:23.351Z,95229.02
2019-05-06T06:03:52.780Z,95229.55
2019-05-06T06:06:22.181Z,95227.75
2019-05-06T06:08:52.438Z,95220.24
2019-05-06T06:11:25.718Z,95224.20
2019-05-06T06:13:54.547Z,95227.65
2019-05-06T06:16:54.800Z,95230.94
2019-05-06T06:19:36.535Z,95227.31
2019-05-06T06:22:08.420Z,95223.25
2019-05-06T06:24:38.096Z,95229.50
2019-05-06T06:27:06.779Z,95231.71
2019-05-06T06:29:35.450Z,95230.86
2019-05-06T06:32:29.080Z,95223.41
2019-05-06T06:35:14.636Z,95231.53
2019-05-06T06:37:54.377Z,95231.41
2019-05-06T06:40:25.170Z,95227.42
2019-05-06T06:42:58.281Z,95232.15
2019-05-06T06:45:26.873Z,95229.14
2019-05-06T06:47:55.557Z,95225.06
2019-05-06T06:50:24.704Z,95227.54
2019-05-06T06:52:53.498Z,95226.34
2019-05-06T06:55:22.643Z,95224.13
2019-05-06T06:58:20.150Z,95225.52
2019-05-06T07:01:06.329Z,95230.00
2019-05-06T07:04:10.292Z,95228.20
2019-05-06T07:06:43.475Z,95229.38
2019-05-06T07:09:12.780Z,95228.52
2019-05-06T07:11:42.805Z,95237.13
2019-05-06T07:14:13.591Z,95235.08
2019-05-06T07:16:43.001Z,95226.48
2019-05-06T07:19:13.328Z,95230.61
2019-05-06T07:21:52.124Z,95219.36
2019-05-06T07:24:20.144Z,95228.75
2019-05-06T07:27:03.720Z,95222.36
2019-05-06T07:29:32.887Z,95224.55
2019-05-06T07:32:02.674Z,95235.95
2019-05-06T07:34:32.219Z,95219.64
2019-05-06T07:37:03.259Z,95227.79
2019-05-06T07:39:33.291Z,95229.05
2019-05-06T07:42:03.400Z,95225.95
2019-05-06T07:44:47.108Z,95225.91
2019-05-06T07:47:26.256Z,95228.66
2019-05-06T07:49:54.889Z,95238.98
2019-05-06T07:52:23.515Z,95226.47
2019-05-06T07:54:53.336Z,95230.55
2019-05-06T07:57:22.176Z,95229.55
2019-05-06T07:59:52.569Z,95232.01
2019-05-06T08:02:22.865Z,95229.50
2019-05-06T08:04:53.166Z,95231.17
2019-05-06T08:07:22.371Z,95239.92
2019-05-06T08:09:52.886Z,95235.05
2019-05-06T08:12:22.304Z,95231.91
2019-05-06T08:14:52.377Z,95241.98
2019-05-06T08:17:26.550Z,95238.45
2019-05-06T08:19:55.140Z,95232.34
2019-05-06T08:22:45.014Z,95233.33
2019-05-06T08:25:14.233Z,95229.86
2019-05-06T08:27:42.824Z,95231.47
2019-05-06T08:30:12.905Z,95236.80
2019-05-06T08:32:42.482Z,95235.98
2019-05-06T08:35:13.230Z,95233.31
2019-05-06T08:37:42.652Z,95227.77
2019-05-06T08:40:11.965Z,95226.64
2019-05-06T08:42:42.608Z,95222.32
2019-05-06T08:45:12.875Z,95224.13
2019-05-06T08:47:42.554Z,95216.94
2019-05-06T08:50:17.941Z,95218.06
2019-05-06T08:53:13.892Z,95219.63
2019-05-06T08:55:42.912Z,95219.63
2019-05-06T08:58:13.955Z,95217.77
2019-05-06T09:00:48.689Z,95221.48
2019-05-06T09:03:17.307Z,95211.81
2019-05-06T09:05:53.267Z,95209.91
2019-05-06T09:08:23.857Z,95209.08
2019-05-06T09:10:53.110Z,95207.47
2019-05-06T09:13:23.179Z,95213.73
2019-05-06T09:15:52.551Z,95216.47
2019-05-06T09:18:23.870Z,95217.05
2019-05-06T09:20:53.664Z,95227.34
2019-05-06T09:23:22.704Z,95227.34
2019-05-06T09:25:53.086Z,95222.22
2019-05-06T09:28:37.071Z,95221.87
2019-05-06T09:31:16.061Z,95226.38
2019-05-06T09:33:52.991Z,95224.43
2019-05-06T09:36:22.863Z,95219.14
2019-05-06T09:38:53.031Z,95221.64
2019-05-06T09:41:23.100Z,95221.95
2019-05-06T09:43:52.850Z,95225.85
2019-05-06T09:46:23.066Z,95225.38
2019-05-06T09:49:05.576Z,95225.89
2019-05-06T09:51:34.203Z,95216.52
2019-05-06T09:54:27.234Z,95217.27
2019-05-06T09:56:59.488Z,95209.17
2019-05-06T09:59:28.092Z,95206.03
2019-05-06T10:01:56.694Z,95204.09
2019-05-06T10:04:25.308Z,95195.17
2019-05-06T10:06:57.383Z,95192.69
2019-05-06T10:09:25.036Z,95198.61
2019-05-06T10:11:53.790Z,95196.36
2019-05-06T10:14:23.500Z,95197.12
2019-05-06T10:16:52.490Z,95204.78
2019-05-06T10:19:22.627Z,95197.34
2019-05-06T10:21:53.114Z,95199.53
2019-05-06T10:24:21.843Z,95198.66
2019-05-06T10:26:55.905Z,95196.35
2019-05-06T10:29:33.606Z,95203.11
2019-05-06T10:32:12.126Z,95201.88
2019-05-06T10:34:43.297Z,95208.56
2019-05-06T10:37:24.268Z,95196.33
2019-05-06T10:40:03.135Z,95202.13
2019-05-06T10:42:37.565Z,95192.95
2019-05-06T10:45:16.184Z,95198.28
2019-05-06T10:47:45.059Z,95194.11
2019-05-06T10:50:13.744Z,95194.02
2019-05-06T10:53:02.542Z,95194.86
2019-05-06T10:55:32.524Z,95194.90
2019-05-06T10:58:02.685Z,95194.70
2019-05-06T11:00:33.184Z,95197.11
2019-05-06T11:03:22.631Z,95192.03
2019-05-06T11:05:53.406Z,95190.09
2019-05-06T11:08:22.286Z,95186.05
2019-05-06T11:10:53.545Z,95180.73
2019-05-06T11:13:24.191Z,95180.64
2019-05-06T11:15:52.773Z,95178.40
2019-05-06T11:18:23.364Z,95171.62
2019-05-06T11:20:53.050Z,95171.38
2019-05-06T11:23:22.551Z,95171.52
2019-05-06T11:25:52.555Z,95170.84
2019-05-06T11:28:42.825Z,95167.89
2019-05-06T11:31:43.264Z,95159.32
2019-05-06T11:34:33.991Z,95162.97
2019-05-06T11:37:19.004Z,95160.29
2019-05-06T11:39:47.791Z,95167.45
2019-05-06T11:42:27.615Z,95169.78
2019-05-06T11:44:47.078Z,95172.56
2019-05-06T11:47:15.726Z,95166.53
2019-05-06T11:49:44.375Z,95165.02
2019-05-06T11:52:13.153Z,95168.48
2019-05-06T11:54:42.315Z,95165.19
2019-05-06T11:57:12.669Z,95167.77
2019-05-06T11:59:43.329Z,95160.67
2019-05-06T12:02:14.385Z,95165.95
2019-05-06T12:04:43.225Z,95162.30
2019-05-06T12:07:15.614Z,95167.25
2019-05-06T12:09:42.170Z,95175.28
2019-05-06T12:12:12.806Z,95181.96
2019-05-06T12:14:42.966Z,95181.68
2019-05-06T12:17:12.754Z,95185.41
2019-05-06T12:19:43.213Z,95190.01
2019-05-06T12:22:12.622Z,95182.06
2019-05-06T12:24:43.097Z,95180.80
2019-05-06T12:27:13.480Z,95177.63
2019-05-06T12:29:42.818Z,95166.53
2019-05-06T12:32:29.977Z,95169.80
2019-05-06T12:34:58.580Z,95171.88
2019-05-06T12:37:27.367Z,95163.35
2019-05-06T12:39:58.429Z,95164.45
2019-05-06T12:42:35.881Z,95158.72
2019-05-06T12:45:18.724Z,95158.40
2019-05-06T12:48:09.467Z,95154.77
2019-05-06T12:50:38.337Z,95160.98
2019-05-06T12:53:06.974Z,95152.27
2019-05-06T12:55:35.577Z,95153.56
2019-05-06T12:58:04.188Z,95148.46
2019-05-06T13:00:33.762Z,95150.85
2019-05-06T13:03:02.717Z,95159.95
2019-05-06T13:05:31.951Z,95156.17
2019-05-06T13:08:05.611Z,95161.09
2019-05-06T13:10:33.378Z,95155.98
2019-05-06T13:13:04.984Z,95156.84
2019-05-06T13:15:33.871Z,95159.95
2019-05-06T13:18:06.982Z,95161.03
2019-05-06T13:20:34.288Z,95155.37
2019-05-06T13:23:15.441Z,95156.77
2019-05-06T13:25:42.251Z,95153.25
2019-05-06T13:28:12.915Z,95150.98
2019-05-06T13:30:43.404Z,95154.02
2019-05-06T13:33:27.263Z,95150.61
2019-05-06T13:35:55.851Z,95145.27
2019-05-06T13:38:24.690Z,95144.44
2019-05-06T13:40:56.660Z,95143.34
2019-05-06T13:43:43.380Z,95146.43
2019-05-06T13:46:18.274Z,95145.32
2019-05-06T13:49:13.301Z,95146.72
2019-05-06T13:51:45.185Z,95147.95
2019-05-06T13:54:16.116Z,95145.55
2019-05-06T13:56:44.377Z,95139.38
2019-05-06T13:59:13.223Z,95146.21
2019-05-06T14:01:49.378Z,95142.75
2019-05-06T14:04:18.239Z,95151.38
2019-05-06T14:06:46.897Z,95149.50
2019-05-06T14:09:28.642Z,95137.59
2019-05-06T14:11:45.839Z,95135.04
2019-05-06T14:14:14.445Z,95134.67
2019-05-06T14:16:43.072Z,95147.28
2019-05-06T14:19:13.227Z,95140.82
2019-05-06T14:21:43.179Z,95142.43
2019-05-06T14:24:13.340Z,95138.55
2019-05-06T14:26:47.777Z,95143.84
2019-05-06T14:29:25.508Z,95153.19
2019-05-06T14:32:03.185Z,95148.00
2019-05-06T14:34:32.540Z,95165.58
2019-05-06T14:37:01.585Z,95163.04
2019-05-06T14:39:48.403Z,95166.17
2019-05-06T14:42:04.332Z,95172.61
2019-05-06T14:44:33.355Z,95167.13
2019-05-06T14:47:16.615Z,95180.33
2019-05-06T14:49:45.677Z,95177.30
2019-05-06T14:52:14.298Z,95170.59
2019-05-06T14:54:50.016Z,95170.59
2019-05-06T14:57:19.491Z,95174.92
2019-05-06T14:59:51.105Z,95171.32
2019-05-06T15:02:25.398Z,95174.82
2019-05-06T15:04:53.346Z,95169.02
2019-05-06T15:07:22.082Z,95170.89
2019-05-06T15:10:07.856Z,95175.80
2019-05-06T15:12:22.922Z,95173.49
2019-05-06T15:14:52.618Z,95180.86
2019-05-06T15:17:23.173Z,95177.42
2019-05-06T15:19:52.867Z,95180.88
2019-05-06T15:22:22.515Z,95180.88
2019-05-06T15:24:53.603Z,95181.87
2019-05-06T15:27:22.750Z,95180.44
2019-05-06T15:29:54.248Z,95173.78
2019-05-06T15:32:30.727Z,95175.61
2019-05-06T15:35:12.823Z,95173.28
2019-05-06T15:37:48.541Z,95167.58
2019-05-06T15:40:31.183Z,95170.28
2019-05-06T15:42:47.537Z,95166.38
2019-05-06T15:45:16.228Z,95166.38
2019-05-06T15:47:45.298Z,95159.69
2019-05-06T15:50:13.985Z,95154.81
2019-05-06T15:52:43.655Z,95160.58
2019-05-06T15:55:12.612Z,95149.89
2019-05-06T15:57:43.484Z,95149.89
2019-05-06T16:00:15.052Z,95153.41
2019-05-06T16:02:43.890Z,95154.52
2019-05-06T16:05:19.418Z,95147.49
2019-05-06T16:07:43.461Z,95152.47
2019-05-06T16:10:13.258Z,95148.48
2019-05-06T16:12:45.255Z,95145.52
2019-05-06T16:15:13.990Z,95145.52
2019-05-06T16:17:42.832Z,95137.65
2019-05-06T16:20:12.951Z,95146.08
2019-05-06T16:22:44.540Z,95153.25
2019-05-06T16:25:15.233Z,95146.22
2019-05-06T16:27:45.429Z,95146.22
2019-05-06T16:30:15.649Z,95145.17
2019-05-06T16:32:44.348Z,95146.75
2019-05-06T16:35:14.323Z,95146.75
2019-05-06T16:37:42.971Z,95140.25
2019-05-06T16:40:12.414Z,95077.68
2019-05-06T16:42:45.405Z,95140.05
2019-05-06T16:45:12.658Z,95130.17
2019-05-06T16:47:44.499Z,95130.17
2019-05-06T16:50:13.544Z,95137.95
2019-05-06T16:52:45.077Z,95130.94
2019-05-06T16:55:16.567Z,95135.12
2019-05-06T16:57:52.343Z,95130.09
2019-05-06T17:00:23.120Z,95130.09
2019-05-06T17:03:00.166Z,95128.50
2019-05-06T17:05:46.113Z,95124.64
2019-05-06T17:08:14.729Z,95125.92
2019-05-06T17:10:44.703Z,95129.08
2019-05-06T17:13:13.716Z,95126.98
2019-05-06T17:15:42.375Z,95129.06
2019-05-06T17:18:12.244Z,95129.06
2019-05-06T17:20:42.703Z,95126.96
2019-05-06T17:23:13.092Z,95132.42
2019-05-06T17:25:42.349Z,95132.42
2019-05-06T17:28:28.792Z,95138.14
2019-05-06T17:31:25.505Z,95137.09
2019-05-06T17:33:55.580Z,95137.09
2019-05-06T17:36:26.278Z,95133.45
2019-05-06T17:38:55.422Z,95143.07
2019-05-06T17:41:27.887Z,95143.07
2019-05-06T17:43:54.579Z,95134.26
2019-05-06T17:46:25.045Z,95136.84
2019-05-06T17:49:03.188Z,95145.96
2019-05-06T17:51:42.568Z,95139.98
2019-05-06T17:54:12.296Z,95141.64
2019-05-06T17:56:41.887Z,95138.09
2019-05-06T17:59:10.634Z,95139.58
2019-05-06T18:01:42.916Z,95139.93
2019-05-06T18:04:12.544Z,95142.05
2019-05-06T18:06:42.366Z,95139.70
2019-05-06T18:09:12.687Z,95134.62
2019-05-06T18:11:42.461Z,95139.64
2019-05-06T18:14:12.363Z,95144.53
2019-05-06T18:16:42.733Z,95141.21
2019-05-06T18:19:12.644Z,95141.02
2019-05-06T18:21:41.362Z,95142.07
2019-05-06T18:24:12.659Z,95139.78
2019-05-06T18:26:42.111Z,95136.94
2019-05-06T18:29:12.556Z,95137.09
2019-05-06T18:31:42.679Z,95151.06
2019-05-06T18:34:12.951Z,95140.72
2019-05-06T18:36:42.938Z,95149.70
2019-05-06T18:39:12.572Z,95154.45
2019-05-06T18:41:42.110Z,95151.92
2019-05-06T18:44:11.995Z,95153.50
2019-05-06T18:46:42.061Z,95160.05
2019-05-06T18:49:12.976Z,95161.84
2019-05-06T18:51:42.636Z,95165.33
2019-05-06T18:54:12.443Z,95168.56
2019-05-06T18:56:43.010Z,95170.91
2019-05-06T18:59:12.287Z,95172.21
2019-05-06T19:01:43.163Z,95172.95
2019-05-06T19:04:16.502Z,95186.85
2019-05-06T19:06:45.162Z,95189.86
2019-05-06T19:09:25.723Z,95184.99
2019-05-06T19:11:54.697Z,95195.89
2019-05-06T19:14:23.608Z,95195.33
2019-05-06T19:16:55.158Z,95196.81
2019-05-06T19:19:23.379Z,95194.14
2019-05-06T19:21:52.500Z,95192.23
2019-05-06T19:24:22.639Z,95191.22
2019-05-06T19:26:52.714Z,95197.53
2019-05-06T19:29:23.147Z,95193.80
2019-05-06T19:31:52.254Z,95189.45
2019-05-06T19:34:23.391Z,95185.05
2019-05-06T19:36:52.872Z,95185.17
2019-05-06T19:39:23.090Z,95195.84
2019-05-06T19:41:52.100Z,95185.82
2019-05-06T19:44:22.110Z,95174.91
2019-05-06T19:46:53.103Z,95173.95
2019-05-06T19:49:21.697Z,95175.48
2019-05-06T19:51:52.344Z,95172.78
2019-05-06T19:54:22.496Z,95163.86
2019-05-06T19:56:52.741Z,95173.91
2019-05-06T19:59:21.500Z,95163.20
2019-05-06T20:01:52.316Z,95166.15
2019-05-06T20:04:22.745Z,95170.23
2019-05-06T20:07:08.836Z,95163.48
2019-05-06T20:09:53.944Z,95161.17
2019-05-06T20:13:04.483Z,95154.41
2019-05-06T20:15:52.480Z,95146.52
2019-05-06T20:18:21.408Z,95152.83
2019-05-06T20:20:50.034Z,95152.77
2019-05-06T20:23:19.100Z,95149.69
2019-05-06T20:25:47.696Z,95151.05
2019-05-06T20:28:16.461Z,95154.56
2019-05-06T20:30:45.191Z,95153.33
2019-05-06T20:33:13.814Z,95157.04
2019-05-06T20:35:43.207Z,95156.54
2019-05-06T20:38:12.447Z,95150.79
2019-05-06T20:40:43.106Z,95154.98
2019-05-06T20:43:19.588Z,95154.12
2019-05-06T20:45:42.978Z,95155.42
2019-05-06T20:48:12.865Z,95153.90
2019-05-06T20:50:42.882Z,95154.94
2019-05-06T20:53:12.265Z,95157.42
2019-05-06T20:55:43.102Z,95154.50
2019-05-06T20:58:12.208Z,95153.15
2019-05-06T21:00:42.912Z,95157.41
2019-05-06T21:03:12.186Z,95150.55
2019-05-06T21:05:43.183Z,95153.48
2019-05-06T21:08:12.933Z,95148.53
2019-05-06T21:10:42.615Z,95150.92
2019-05-06T21:13:13.325Z,95148.73
2019-05-06T21:15:43.185Z,95148.30
2019-05-06T21:18:12.276Z,95152.72
2019-05-06T21:20:43.340Z,95161.11
2019-05-06T21:23:11.315Z,95152.23
2019-05-06T21:25:40.256Z,95154.20
2019-05-06T21:28:08.915Z,95146.87
2019-05-06T21:30:37.641Z,95158.53
2019-05-06T21:33:06.380Z,95150.44
2019-05-06T21:35:35.069Z,95140.86
2019-05-06T21:38:03.906Z,95152.91
2019-05-06T21:40:32.569Z,95157.26
2019-05-06T21:43:02.080Z,95152.50
2019-05-06T21:45:33.083Z,95160.05
2019-05-06T21:48:02.751Z,95155.29
2019-05-06T21:50:33.072Z,95149.41
2019-05-06T21:53:02.728Z,95150.80
2019-05-06T21:55:32.326Z,95149.98
2019-05-06T21:58:02.133Z,95150.28
2019-05-06T22:00:43.355Z,95148.53
2019-05-06T22:03:13.376Z,95136.67
2019-05-06T22:05:42.725Z,95137.41
2019-05-06T22:10:52.895Z,95135.45
2019-05-06T22:13:21.955Z,95144.53
2019-05-06T22:15:50.653Z,95138.87
2019-05-06T22:18:19.287Z,95136.69
2019-05-06T22:21:12.083Z,95131.44
2019-05-06T22:23:52.215Z,95132.45
2019-05-06T22:26:23.184Z,95129.98
2019-05-06T22:28:52.502Z,95127.91
2019-05-06T22:34:01.337Z,95130.13
2019-05-06T22:36:32.109Z,95129.14
2019-05-06T22:39:02.371Z,95117.09
2019-05-06T22:41:32.572Z,95117.88
2019-05-06T22:44:12.650Z,95120.18
2019-05-06T22:46:32.949Z,95116.25
2019-05-06T22:49:02.451Z,95104.42
2019-05-06T22:51:32.297Z,95112.84
2019-05-06T22:54:02.670Z,95107.84
2019-05-06T22:56:32.490Z,95108.04
2019-05-06T22:59:03.301Z,95116.09
2019-05-06T23:01:43.538Z,95107.80
2019-05-06T23:04:13.300Z,95112.13
2019-05-06T23:06:41.920Z,95108.58
2019-05-06T23:09:10.874Z,95113.03
2019-05-06T23:11:39.493Z,95113.04
2019-05-06T23:14:08.178Z,95110.20
2019-05-06T23:16:36.934Z,95118.47
2019-05-06T23:19:05.555Z,95121.30
2019-05-06T23:21:34.269Z,95118.59
2019-05-06T23:24:02.923Z,95122.27
2019-05-06T23:26:31.497Z,95119.95
2019-05-06T23:29:02.425Z,95120.20
2019-05-06T23:31:33.003Z,95125.91
2019-05-06T23:34:02.325Z,95124.31
2019-05-06T23:36:52.850Z,95122.39
2019-05-06T23:39:59.962Z,95124.41
2019-05-06T23:43:04.907Z,95120.47
2019-05-06T23:46:12.118Z,95122.41
2019-05-06T23:49:17.153Z,95116.02
2019-05-06T23:52:22.741Z,95117.05
2019-05-06T23:55:27.568Z,95118.42
2019-05-06T23:57:55.065Z,95118.23
